createdAt,value
2018-07-07T00:00:48.556Z,13.53
2018-07-07T00:03:17.018Z,12.93
2018-07-07T00:05:45.535Z,14.40
2018-07-07T00:08:13.977Z,16.63
2018-07-07T00:10:42.484Z,18.43
2018-07-07T00:13:11.005Z,12.77
2018-07-07T00:15:39.493Z,14.27
2018-07-07T00:18:07.973Z,14.53
2018-07-07T00:20:36.449Z,14.30
2018-07-07T00:23:04.884Z,14.77
2018-07-07T00:25:33.349Z,16.80
2018-07-07T00:28:01.846Z,14.73
2018-07-07T00:30:30.301Z,14.70
2018-07-07T00:32:58.772Z,15.80
2018-07-07T00:35:27.216Z,14.93
2018-07-07T00:37:55.636Z,16.67
2018-07-07T00:40:24.097Z,17.77
2018-07-07T00:42:52.575Z,14.43
2018-07-07T00:45:21.076Z,14.30
2018-07-07T00:47:49.537Z,16.30
2018-07-07T00:50:18.030Z,16.47
2018-07-07T00:52:46.517Z,15.23
2018-07-07T00:55:14.995Z,16.30
2018-07-07T00:57:43.458Z,17.00
2018-07-07T01:00:11.888Z,15.97
2018-07-07T01:02:40.350Z,15.07
2018-07-07T01:05:18.768Z,18.10
2018-07-07T01:07:47.244Z,14.63
2018-07-07T01:10:15.736Z,15.57
2018-07-07T01:12:44.240Z,15.47
2018-07-07T01:15:12.708Z,16.60
2018-07-07T01:17:41.140Z,18.20
2018-07-07T01:20:09.613Z,14.37
2018-07-07T01:22:38.066Z,18.20
2018-07-07T01:25:06.590Z,19.27
2018-07-07T01:27:35.018Z,16.77
2018-07-07T01:30:04.431Z,17.30
2018-07-07T01:32:32.968Z,19.43
2018-07-07T01:35:01.441Z,16.37
2018-07-07T01:37:29.880Z,15.70
2018-07-07T01:39:58.350Z,15.23
2018-07-07T01:42:26.792Z,15.73
2018-07-07T01:44:55.250Z,16.30
2018-07-07T01:47:23.724Z,17.50
2018-07-07T01:49:52.154Z,19.00
2018-07-07T01:52:20.637Z,15.80
2018-07-07T01:54:49.057Z,16.07
2018-07-07T01:57:17.528Z,17.07
2018-07-07T01:59:46.223Z,17.10
2018-07-07T02:02:14.725Z,16.97
2018-07-07T02:04:43.188Z,16.17
2018-07-07T02:07:11.620Z,19.70
2018-07-07T02:09:40.121Z,15.57
2018-07-07T02:12:08.592Z,19.63
2018-07-07T02:14:37.073Z,15.50
2018-07-07T02:17:05.701Z,14.90
2018-07-07T02:19:34.155Z,16.73
2018-07-07T02:22:02.698Z,18.13
2018-07-07T02:24:31.151Z,16.00
2018-07-07T02:26:59.600Z,14.73
2018-07-07T02:29:28.060Z,16.57
2018-07-07T02:31:56.489Z,18.13
2018-07-07T02:34:24.954Z,14.73
2018-07-07T02:36:53.401Z,16.60
2018-07-07T02:39:21.932Z,16.00
2018-07-07T02:41:50.385Z,16.40
2018-07-07T02:44:18.818Z,16.17
2018-07-07T02:46:47.300Z,19.33
2018-07-07T02:49:15.772Z,15.90
2018-07-07T02:51:44.240Z,15.83
2018-07-07T02:54:12.688Z,16.37
2018-07-07T02:56:41.161Z,16.47
2018-07-07T02:59:09.612Z,16.77
2018-07-07T03:01:38.045Z,16.50
2018-07-07T03:04:06.545Z,15.47
2018-07-07T03:06:35.656Z,15.27
2018-07-07T03:09:04.597Z,15.30
2018-07-07T03:11:33.120Z,16.60
2018-07-07T03:14:01.550Z,16.20
2018-07-07T03:16:30.828Z,18.60
2018-07-07T03:18:59.253Z,17.03
2018-07-07T03:21:27.710Z,24.83
2018-07-07T03:23:56.148Z,20.23
2018-07-07T03:26:24.613Z,19.00
2018-07-07T03:28:53.054Z,16.93
2018-07-07T03:31:21.505Z,16.67
2018-07-07T03:33:49.936Z,16.50
2018-07-07T03:36:18.396Z,15.50
2018-07-07T03:38:46.834Z,16.33
2018-07-07T03:41:15.314Z,22.80
2018-07-07T03:43:43.784Z,17.00
2018-07-07T03:46:12.256Z,16.00
2018-07-07T03:48:40.784Z,15.40
2018-07-07T03:51:09.968Z,18.37
2018-07-07T03:53:38.450Z,16.73
2018-07-07T03:56:06.916Z,18.03
2018-07-07T03:58:36.204Z,16.90
2018-07-07T04:01:04.725Z,15.87
2018-07-07T04:03:33.245Z,17.70
2018-07-07T04:06:01.732Z,16.40
2018-07-07T04:08:30.204Z,14.90
2018-07-07T04:10:58.640Z,18.93
2018-07-07T04:13:27.135Z,15.43
2018-07-07T04:15:55.604Z,17.03
2018-07-07T04:18:29.488Z,17.77
2018-07-07T04:20:57.954Z,15.90
2018-07-07T04:23:26.401Z,17.63
2018-07-07T04:25:54.904Z,19.27
2018-07-07T04:28:23.334Z,18.93
2018-07-07T04:30:52.136Z,17.67
2018-07-07T04:33:20.604Z,20.60
2018-07-07T04:35:49.879Z,21.77
2018-07-07T04:38:18.984Z,23.23
2018-07-07T04:40:47.840Z,22.23
2018-07-07T04:43:16.708Z,17.97
2018-07-07T04:45:45.411Z,18.67
2018-07-07T04:48:14.140Z,20.97
2018-07-07T04:50:42.596Z,18.77
2018-07-07T04:53:11.056Z,31.60
2018-07-07T04:55:39.497Z,19.00
2018-07-07T04:58:08.018Z,17.77
2018-07-07T05:00:36.484Z,18.30
2018-07-07T05:03:05.110Z,20.40
2018-07-07T05:05:33.609Z,21.30
2018-07-07T05:08:02.049Z,22.43
2018-07-07T05:10:30.529Z,17.70
2018-07-07T05:12:58.989Z,18.37
2018-07-07T05:15:27.650Z,18.67
2018-07-07T05:17:56.152Z,20.70
2018-07-07T05:20:24.652Z,20.63
2018-07-07T05:22:53.145Z,19.47
2018-07-07T05:25:21.652Z,21.90
2018-07-07T05:27:50.087Z,22.67
2018-07-07T05:30:18.626Z,19.73
2018-07-07T05:32:47.124Z,18.30
2018-07-07T05:35:15.616Z,25.93
2018-07-07T05:37:44.152Z,17.67
2018-07-07T05:40:12.624Z,27.40
2018-07-07T05:42:41.114Z,18.67
2018-07-07T05:45:09.615Z,21.27
2018-07-07T05:47:38.076Z,20.63
2018-07-07T05:50:06.586Z,21.00
2018-07-07T05:52:35.052Z,20.33
2018-07-07T05:55:03.589Z,24.50
2018-07-07T05:57:32.096Z,20.77
2018-07-07T06:00:00.555Z,20.97
2018-07-07T06:02:28.708Z,27.33
2018-07-07T06:04:57.152Z,23.97
2018-07-07T06:07:25.613Z,23.57
2018-07-07T06:09:54.064Z,19.50
2018-07-07T06:12:22.682Z,16.37
2018-07-07T06:14:51.129Z,20.60
2018-07-07T06:17:19.609Z,21.73
2018-07-07T06:19:48.172Z,17.83
2018-07-07T06:22:17.119Z,19.70
2018-07-07T06:24:45.554Z,17.90
2018-07-07T06:27:14.104Z,24.00
2018-07-07T06:29:42.708Z,23.13
2018-07-07T06:32:11.353Z,20.47
2018-07-07T06:34:39.896Z,22.10
2018-07-07T06:37:08.342Z,25.83
2018-07-07T06:39:36.882Z,20.83
2018-07-07T06:42:05.397Z,14.77
2018-07-07T06:44:33.841Z,17.67
2018-07-07T06:47:02.375Z,17.40
2018-07-07T06:49:30.874Z,14.47
2018-07-07T06:51:59.439Z,15.07
2018-07-07T06:54:27.955Z,17.13
2018-07-07T06:56:56.470Z,19.10
2018-07-07T06:59:24.957Z,15.27
2018-07-07T07:01:53.427Z,15.13
2018-07-07T07:04:21.880Z,15.50
2018-07-07T07:06:50.401Z,11.80
2018-07-07T07:09:18.953Z,12.83
2018-07-07T07:11:47.408Z,17.40
2018-07-07T07:14:15.908Z,14.73
2018-07-07T07:16:44.349Z,10.83
2018-07-07T07:19:13.208Z,19.43
2018-07-07T07:21:41.738Z,15.03
2018-07-07T07:24:10.357Z,12.07
2018-07-07T07:26:38.908Z,14.77
2018-07-07T07:29:07.397Z,13.50
2018-07-07T07:31:35.843Z,12.20
2018-07-07T07:34:04.031Z,18.87
2018-07-07T07:36:40.856Z,12.43
2018-07-07T07:39:09.329Z,11.20
2018-07-07T07:41:37.796Z,10.10
2018-07-07T07:44:06.306Z,16.27
2018-07-07T07:46:34.736Z,12.50
2018-07-07T07:49:03.204Z,8.77
2018-07-07T07:51:31.633Z,15.87
2018-07-07T07:54:00.148Z,8.70
2018-07-07T07:56:29.021Z,10.07
2018-07-07T07:58:58.375Z,8.43
2018-07-07T08:01:26.976Z,9.20
2018-07-07T08:03:56.206Z,7.57
2018-07-07T08:06:24.676Z,15.67
2018-07-07T08:08:53.121Z,8.03
2018-07-07T08:11:21.543Z,8.30
2018-07-07T08:13:50.021Z,8.10
2018-07-07T08:16:18.643Z,14.70
2018-07-07T08:18:47.123Z,9.27
2018-07-07T08:21:15.577Z,13.93
2018-07-07T08:23:43.678Z,10.80
2018-07-07T08:26:12.151Z,11.50
2018-07-07T08:28:40.609Z,8.50
2018-07-07T08:31:08.808Z,12.80
2018-07-07T08:33:37.345Z,10.70
2018-07-07T08:36:05.824Z,6.30
2018-07-07T08:38:34.621Z,11.03
2018-07-07T08:41:03.052Z,9.63
2018-07-07T08:43:31.516Z,8.07
2018-07-07T08:45:59.936Z,7.50
2018-07-07T08:48:28.389Z,6.20
2018-07-07T08:50:56.843Z,10.10
2018-07-07T08:53:25.284Z,10.67
2018-07-07T08:55:53.723Z,9.40
2018-07-07T08:58:22.180Z,7.53
2018-07-07T09:00:50.649Z,7.37
2018-07-07T09:03:19.083Z,9.60
2018-07-07T09:05:47.557Z,5.80
2018-07-07T09:08:16.026Z,8.37
2018-07-07T09:10:44.446Z,10.00
2018-07-07T09:13:12.892Z,8.83
2018-07-07T09:15:41.350Z,11.60
2018-07-07T09:18:09.869Z,8.67
2018-07-07T09:20:38.318Z,7.97
2018-07-07T09:23:06.765Z,9.13
2018-07-07T09:25:35.243Z,11.90
2018-07-07T09:28:03.742Z,9.10
2018-07-07T09:30:32.269Z,7.90
2018-07-07T09:33:01.545Z,7.17
2018-07-07T09:35:29.984Z,14.10
2018-07-07T09:37:58.444Z,14.13
2018-07-07T09:40:26.900Z,7.87
2018-07-07T09:42:55.376Z,8.93
2018-07-07T09:45:23.796Z,7.73
2018-07-07T09:47:52.258Z,8.00
2018-07-07T09:50:20.717Z,9.40
2018-07-07T09:52:49.143Z,8.40
2018-07-07T09:55:17.628Z,12.03
2018-07-07T09:57:46.095Z,9.73
2018-07-07T10:00:17.087Z,11.40
2018-07-07T10:02:47.234Z,7.40
2018-07-07T10:05:15.688Z,9.50
2018-07-07T10:07:44.228Z,12.00
2018-07-07T10:10:12.746Z,5.63
2018-07-07T10:12:41.173Z,7.43
2018-07-07T10:15:09.633Z,8.73
2018-07-07T10:17:38.089Z,8.83
2018-07-07T10:20:06.521Z,9.80
2018-07-07T10:22:35.004Z,4.67
2018-07-07T10:25:03.473Z,6.43
2018-07-07T10:27:31.949Z,9.60
2018-07-07T10:30:00.389Z,6.53
2018-07-07T10:32:28.860Z,8.93
2018-07-07T10:34:57.555Z,7.60
2018-07-07T10:37:26.016Z,9.60
2018-07-07T10:39:54.458Z,7.97
2018-07-07T10:42:23.128Z,6.27
2018-07-07T10:44:51.653Z,7.50
2018-07-07T10:47:20.108Z,6.63
2018-07-07T10:49:48.577Z,5.47
2018-07-07T10:52:17.020Z,4.37
2018-07-07T10:54:45.484Z,4.77
2018-07-07T10:57:13.939Z,5.63
2018-07-07T10:59:42.409Z,5.47
2018-07-07T11:02:10.843Z,6.50
2018-07-07T11:04:39.282Z,6.20
2018-07-07T11:07:07.817Z,6.63
2018-07-07T11:09:35.928Z,3.77
2018-07-07T11:12:04.504Z,6.60
2018-07-07T11:14:32.841Z,6.60
2018-07-07T11:17:00.936Z,4.37
2018-07-07T11:19:29.385Z,7.30
2018-07-07T11:21:57.824Z,7.90
2018-07-07T11:24:26.289Z,5.83
2018-07-07T11:26:54.722Z,3.10
2018-07-07T11:29:23.177Z,4.93
2018-07-07T11:31:51.609Z,4.60
2018-07-07T11:34:20.077Z,3.20
2018-07-07T11:36:48.649Z,3.60
2018-07-07T11:39:16.803Z,3.77
2018-07-07T11:41:45.358Z,4.33
2018-07-07T11:44:13.780Z,4.40
2018-07-07T11:46:41.978Z,4.23
2018-07-07T11:49:10.433Z,3.37
2018-07-07T11:51:38.560Z,2.33
2018-07-07T11:54:07.051Z,6.90
2018-07-07T11:56:35.487Z,3.07
2018-07-07T11:59:03.960Z,3.70
2018-07-07T12:01:32.420Z,2.60
2018-07-07T12:04:00.516Z,5.00
2018-07-07T12:06:28.985Z,8.10
2018-07-07T12:08:57.993Z,5.63
2018-07-07T12:11:26.467Z,2.83
2018-07-07T12:13:54.575Z,4.37
2018-07-07T12:16:23.055Z,3.00
2018-07-07T12:18:51.513Z,5.20
2018-07-07T12:21:19.957Z,5.27
2018-07-07T12:23:48.460Z,4.10
2018-07-07T12:26:16.933Z,3.50
2018-07-07T12:28:45.400Z,3.80
2018-07-07T12:31:13.879Z,2.20
2018-07-07T12:33:42.364Z,3.37
2018-07-07T12:36:10.840Z,2.47
2018-07-07T12:38:39.289Z,3.43
2018-07-07T12:41:07.784Z,7.87
2018-07-07T12:43:35.928Z,3.00
2018-07-07T12:46:04.395Z,3.93
2018-07-07T12:48:32.976Z,3.50
2018-07-07T12:51:01.428Z,2.40
2018-07-07T12:53:29.858Z,2.53
2018-07-07T12:55:58.354Z,3.07
2018-07-07T12:58:26.808Z,3.70
2018-07-07T13:00:55.254Z,2.77
2018-07-07T13:03:23.719Z,4.00
2018-07-07T13:05:52.154Z,2.50
2018-07-07T13:08:20.565Z,3.90
2018-07-07T13:10:49.065Z,2.33
2018-07-07T13:13:17.508Z,2.93
2018-07-07T13:15:45.613Z,8.40
2018-07-07T13:18:14.599Z,5.10
2018-07-07T13:20:43.076Z,3.40
2018-07-07T13:23:11.556Z,3.70
2018-07-07T13:25:40.055Z,7.07
2018-07-07T13:28:08.788Z,13.10
2018-07-07T13:30:37.279Z,3.67
2018-07-07T13:33:05.673Z,4.43
2018-07-07T13:35:34.136Z,6.83
2018-07-07T13:38:02.245Z,3.00
2018-07-07T13:40:30.697Z,5.40
2018-07-07T13:42:59.172Z,4.10
2018-07-07T13:45:27.674Z,3.07
2018-07-07T13:47:55.770Z,3.00
2018-07-07T13:50:24.217Z,2.47
2018-07-07T13:52:52.765Z,7.50
2018-07-07T13:55:21.205Z,3.70
2018-07-07T13:57:49.681Z,6.37
2018-07-07T14:00:18.102Z,4.80
2018-07-07T14:02:46.591Z,2.63
2018-07-07T14:05:15.772Z,3.20
2018-07-07T14:07:44.217Z,4.63
2018-07-07T14:10:12.697Z,3.17
2018-07-07T14:12:41.147Z,6.77
2018-07-07T14:15:09.652Z,2.80
2018-07-07T14:17:38.144Z,3.30
2018-07-07T14:20:06.773Z,4.13
2018-07-07T14:22:34.951Z,3.77
2018-07-07T14:25:03.452Z,4.30
2018-07-07T14:27:31.925Z,5.93
2018-07-07T14:30:00.361Z,3.10
2018-07-07T14:32:28.820Z,2.70
2018-07-07T14:34:57.282Z,3.47
2018-07-07T14:37:25.720Z,3.20
2018-07-07T14:40:00.043Z,4.93
2018-07-07T14:42:33.734Z,4.07
2018-07-07T14:45:01.904Z,2.90
2018-07-07T14:47:30.333Z,4.30
2018-07-07T14:49:58.812Z,6.30
2018-07-07T14:52:27.396Z,3.87
2018-07-07T14:54:55.853Z,13.03
2018-07-07T14:57:24.310Z,8.90
2018-07-07T14:59:52.447Z,3.50
2018-07-07T15:02:20.896Z,4.90
2018-07-07T15:04:49.345Z,5.03
2018-07-07T15:07:17.813Z,2.77
2018-07-07T15:09:45.922Z,3.93
2018-07-07T15:12:14.415Z,6.53
2018-07-07T15:14:42.849Z,3.77
2018-07-07T15:17:11.007Z,4.23
2018-07-07T15:19:39.448Z,5.00
2018-07-07T15:22:07.996Z,10.70
2018-07-07T15:24:36.470Z,4.43
2018-07-07T15:27:05.279Z,7.07
2018-07-07T15:29:33.724Z,3.80
2018-07-07T15:32:01.879Z,4.43
2018-07-07T15:34:30.366Z,4.90
2018-07-07T15:36:58.816Z,3.57
2018-07-07T15:39:27.285Z,6.10
2018-07-07T15:41:55.760Z,4.77
2018-07-07T15:44:24.196Z,5.77
2018-07-07T15:46:52.678Z,7.43
2018-07-07T15:49:21.107Z,4.00
2018-07-07T15:51:50.502Z,3.23
2018-07-07T15:54:19.193Z,4.60
2018-07-07T15:56:47.701Z,8.00
2018-07-07T15:59:16.164Z,3.80
2018-07-07T16:01:44.641Z,4.90
2018-07-07T16:04:13.107Z,6.00
2018-07-07T16:06:42.229Z,7.07
2018-07-07T16:09:10.675Z,3.93
2018-07-07T16:11:39.130Z,6.00
2018-07-07T16:14:07.710Z,3.07
2018-07-07T16:16:36.181Z,3.40
2018-07-07T16:19:05.477Z,2.97
2018-07-07T16:21:33.980Z,3.67
2018-07-07T16:24:03.285Z,3.27
2018-07-07T16:26:31.786Z,3.97
2018-07-07T16:29:01.528Z,4.83
2018-07-07T16:31:30.018Z,4.00
2018-07-07T16:33:58.167Z,5.07
2018-07-07T16:36:26.604Z,3.60
